createdAt,value
2018-06-20T00:01:54.875Z,74.00
2018-06-20T00:04:23.084Z,73.90
2018-06-20T00:06:51.287Z,74.00
2018-06-20T00:09:19.483Z,73.90
2018-06-20T00:11:47.710Z,74.00
2018-06-20T00:14:15.994Z,74.00
2018-06-20T00:16:44.265Z,74.10
2018-06-20T00:19:12.457Z,74.20
2018-06-20T00:21:40.675Z,74.20
2018-06-20T00:24:08.901Z,74.30
2018-06-20T00:26:37.108Z,74.30
2018-06-20T00:29:05.331Z,74.30
2018-06-20T00:31:33.546Z,74.40
2018-06-20T00:36:29.750Z,75.20
2018-06-20T00:38:57.954Z,74.30
2018-06-20T00:41:26.213Z,74.30
2018-06-20T00:43:54.414Z,74.30
2018-06-20T00:46:22.663Z,74.40
2018-06-20T00:48:50.913Z,74.40
2018-06-20T00:51:19.106Z,74.40
2018-06-20T00:53:47.327Z,74.40
2018-06-20T00:56:22.475Z,74.40
2018-06-20T01:01:19.026Z,74.50
2018-06-20T01:03:47.236Z,74.50
2018-06-20T01:06:15.474Z,74.50
2018-06-20T01:08:43.686Z,74.50
2018-06-20T01:11:12.400Z,74.50
2018-06-20T01:13:40.609Z,74.60
2018-06-20T01:16:08.815Z,74.60
2018-06-20T01:18:37.002Z,74.50
2018-06-20T01:21:05.202Z,74.70
2018-06-20T01:23:33.443Z,74.70
2018-06-20T01:26:01.649Z,74.70
2018-06-20T01:28:29.873Z,74.80
2018-06-20T01:30:58.073Z,74.70
2018-06-20T01:33:26.330Z,74.70
2018-06-20T01:35:54.525Z,74.80
2018-06-20T01:38:22.727Z,74.90
2018-06-20T01:40:50.963Z,74.90
2018-06-20T01:43:19.353Z,75.00
2018-06-20T01:45:47.618Z,75.00
2018-06-20T01:48:15.825Z,75.00
2018-06-20T01:50:44.035Z,75.00
2018-06-20T01:53:12.238Z,75.00
2018-06-20T01:55:40.488Z,75.00
2018-06-20T01:58:08.647Z,75.10
2018-06-20T02:00:36.840Z,76.00
2018-06-20T02:03:05.088Z,75.10
2018-06-20T02:05:33.287Z,75.20
2018-06-20T02:08:01.495Z,75.20
2018-06-20T02:10:29.690Z,75.20
2018-06-20T02:12:57.882Z,75.20
2018-06-20T02:15:26.082Z,75.20
2018-06-20T02:17:54.323Z,75.20
2018-06-20T02:20:22.525Z,75.30
2018-06-20T02:22:50.737Z,75.40
2018-06-20T02:25:18.952Z,75.40
2018-06-20T02:27:47.179Z,75.40
2018-06-20T02:30:15.374Z,75.50
2018-06-20T02:32:43.558Z,75.50
2018-06-20T02:35:11.751Z,75.50
2018-06-20T02:37:39.942Z,75.60
2018-06-20T02:40:08.159Z,75.60
2018-06-20T02:42:36.369Z,75.70
2018-06-20T02:45:04.578Z,75.70
2018-06-20T02:47:38.131Z,75.70
2018-06-20T02:50:06.319Z,75.60
2018-06-20T02:52:34.554Z,75.70
2018-06-20T02:55:02.716Z,75.70
2018-06-20T02:57:31.170Z,75.80
2018-06-20T02:59:59.452Z,75.70
2018-06-20T03:02:27.637Z,75.70
2018-06-20T03:04:55.818Z,75.70
2018-06-20T03:07:24.095Z,75.80
2018-06-20T03:09:52.268Z,75.80
2018-06-20T03:12:20.489Z,75.80
2018-06-20T03:14:48.704Z,75.80
2018-06-20T03:17:16.897Z,75.80
2018-06-20T03:19:45.074Z,75.80
2018-06-20T03:22:13.282Z,75.70
2018-06-20T03:24:41.470Z,75.70
2018-06-20T03:27:09.658Z,75.70
2018-06-20T03:29:37.848Z,75.70
2018-06-20T03:32:06.030Z,75.70
2018-06-20T03:34:34.210Z,75.70
2018-06-20T03:37:02.401Z,76.40
2018-06-20T03:39:30.571Z,75.60
2018-06-20T03:41:58.737Z,75.50
2018-06-20T03:44:27.008Z,75.50
2018-06-20T03:46:55.430Z,75.50
2018-06-20T03:49:23.608Z,75.60
2018-06-20T03:51:51.810Z,75.60
2018-06-20T03:54:20.001Z,75.30
2018-06-20T03:56:48.161Z,75.70
2018-06-20T03:59:16.345Z,75.70
2018-06-20T04:01:44.547Z,75.60
2018-06-20T04:04:12.710Z,75.60
2018-06-20T04:06:40.922Z,75.60
2018-06-20T04:09:11.493Z,75.50
2018-06-20T04:11:39.689Z,75.50
2018-06-20T04:14:07.882Z,75.50
2018-06-20T04:16:36.069Z,75.50
2018-06-20T04:19:04.242Z,75.40
2018-06-20T04:21:32.481Z,75.50
2018-06-20T04:24:00.669Z,75.50
2018-06-20T04:26:28.845Z,75.40
2018-06-20T04:28:57.030Z,75.40
2018-06-20T04:31:25.204Z,75.40
2018-06-20T04:33:53.690Z,75.40
2018-06-20T04:36:21.894Z,75.40
2018-06-20T04:38:50.137Z,75.50
2018-06-20T04:41:18.328Z,75.50
2018-06-20T04:43:46.529Z,75.50
2018-06-20T04:46:14.693Z,75.50
2018-06-20T04:48:42.888Z,75.40
2018-06-20T04:51:11.080Z,75.40
2018-06-20T04:53:39.258Z,75.40
2018-06-20T04:56:07.493Z,75.40
2018-06-20T04:58:35.686Z,75.30
2018-06-20T05:01:03.877Z,75.20
2018-06-20T05:03:32.101Z,75.20
2018-06-20T05:06:00.289Z,75.20
2018-06-20T05:08:28.450Z,75.10
2018-06-20T05:10:56.632Z,75.20
2018-06-20T05:13:24.801Z,76.10
2018-06-20T05:15:52.969Z,75.10
2018-06-20T05:18:21.133Z,75.20
2018-06-20T05:20:49.409Z,75.00
2018-06-20T05:23:17.576Z,75.10
2018-06-20T05:25:45.894Z,75.10
2018-06-20T05:28:14.061Z,75.00
2018-06-20T05:30:42.289Z,75.00
2018-06-20T05:33:10.458Z,75.10
2018-06-20T05:35:38.625Z,75.20
2018-06-20T05:38:06.799Z,75.20
2018-06-20T05:40:34.977Z,75.30
2018-06-20T05:43:03.143Z,75.30
2018-06-20T05:45:31.451Z,75.40
2018-06-20T05:47:59.666Z,75.40
2018-06-20T05:50:27.841Z,75.30
2018-06-20T05:52:56.064Z,75.20
2018-06-20T05:55:24.246Z,75.10
2018-06-20T05:57:52.513Z,75.00
2018-06-20T06:00:20.814Z,75.00
2018-06-20T06:02:49.061Z,75.10
2018-06-20T06:05:17.313Z,75.20
2018-06-20T06:07:45.515Z,75.10
2018-06-20T06:10:15.599Z,75.10
2018-06-20T06:12:44.062Z,75.10
2018-06-20T06:15:12.237Z,75.10
2018-06-20T06:17:40.674Z,75.10
2018-06-20T06:20:09.518Z,75.10
2018-06-20T06:22:37.689Z,75.30
2018-06-20T06:25:05.882Z,75.00
2018-06-20T06:27:34.077Z,74.80
2018-06-20T06:30:02.437Z,74.90
2018-06-20T06:32:30.662Z,74.90
2018-06-20T06:34:58.896Z,74.70
2018-06-20T06:37:27.067Z,74.60
2018-06-20T06:39:55.264Z,74.50
2018-06-20T06:42:23.473Z,74.30
2018-06-20T06:44:52.014Z,74.90
2018-06-20T06:47:20.282Z,74.10
2018-06-20T06:49:48.482Z,74.00
2018-06-20T06:52:16.641Z,73.90
2018-06-20T06:54:44.806Z,73.80
2018-06-20T06:57:13.070Z,73.80
2018-06-20T06:59:41.335Z,73.80
2018-06-20T07:02:09.506Z,73.70
2018-06-20T07:04:37.791Z,73.70
2018-06-20T07:07:06.022Z,73.70
2018-06-20T07:09:34.245Z,73.70
2018-06-20T07:12:02.461Z,73.80
2018-06-20T07:14:30.739Z,73.90
2018-06-20T07:16:58.921Z,73.20
2018-06-20T07:19:27.091Z,73.60
2018-06-20T07:21:55.254Z,73.50
2018-06-20T07:24:23.488Z,74.40
2018-06-20T07:26:51.605Z,73.80
2018-06-20T07:29:19.780Z,73.80
2018-06-20T07:31:47.930Z,73.50
2018-06-20T07:34:16.344Z,73.50
2018-06-20T07:36:44.285Z,73.40
2018-06-20T07:39:12.453Z,73.50
2018-06-20T07:41:40.617Z,73.40
2018-06-20T07:44:08.838Z,74.30
2018-06-20T07:46:37.009Z,74.50
2018-06-20T07:49:05.249Z,73.70
2018-06-20T07:51:33.438Z,73.80
2018-06-20T07:54:01.626Z,74.00
2018-06-20T07:56:29.797Z,74.00
2018-06-20T07:58:58.464Z,73.60
2018-06-20T08:01:43.681Z,74.20
2018-06-20T08:04:17.369Z,73.80
2018-06-20T08:06:50.945Z,72.40
2018-06-20T08:09:24.405Z,72.50
2018-06-20T08:11:58.057Z,72.70
2018-06-20T08:14:31.721Z,72.80
2018-06-20T08:17:05.551Z,72.60
2018-06-20T08:19:39.281Z,72.30
2018-06-20T08:22:07.465Z,72.20
2018-06-20T08:24:36.524Z,72.40
2018-06-20T08:27:04.753Z,72.40
2018-06-20T08:29:32.940Z,72.60
2018-06-20T08:32:01.164Z,72.30
2018-06-20T08:34:29.329Z,71.70
2018-06-20T08:36:57.528Z,71.40
2018-06-20T08:39:25.725Z,71.10
2018-06-20T08:41:53.918Z,71.00
2018-06-20T08:44:22.169Z,70.80
2018-06-20T08:46:50.410Z,71.40
2018-06-20T08:49:18.588Z,72.80
2018-06-20T08:51:46.845Z,71.90
2018-06-20T08:54:15.000Z,71.50
2018-06-20T08:56:43.181Z,70.80
2018-06-20T08:59:11.342Z,71.00
2018-06-20T09:01:39.662Z,72.10
2018-06-20T09:04:13.116Z,71.80
2018-06-20T09:06:46.726Z,71.20
2018-06-20T09:09:20.438Z,70.70
2018-06-20T09:11:53.830Z,70.20
2018-06-20T09:14:22.084Z,70.70
2018-06-20T09:16:55.771Z,69.50
2018-06-20T09:19:29.473Z,70.10
2018-06-20T09:21:57.704Z,69.90
2018-06-20T09:24:26.137Z,70.00
2018-06-20T09:26:54.313Z,70.20
2018-06-20T09:29:22.476Z,70.20
2018-06-20T09:31:50.649Z,70.50
2018-06-20T09:34:18.805Z,70.00
2018-06-20T09:36:47.001Z,69.20
2018-06-20T09:39:15.182Z,68.50
2018-06-20T09:41:43.348Z,68.40
2018-06-20T09:44:11.519Z,68.20
2018-06-20T09:46:39.685Z,68.10
2018-06-20T09:49:07.894Z,68.00
2018-06-20T09:51:36.073Z,68.40
2018-06-20T09:54:04.246Z,68.50
2018-06-20T09:56:32.420Z,67.80
2018-06-20T09:59:06.027Z,67.20
2018-06-20T10:01:39.836Z,66.80
2018-06-20T10:04:13.349Z,66.50
2018-06-20T10:06:46.821Z,66.30
2018-06-20T10:09:20.349Z,66.20
2018-06-20T10:11:54.102Z,66.20
2018-06-20T10:14:22.321Z,66.30
2018-06-20T10:16:50.476Z,66.40
2018-06-20T10:19:18.653Z,66.20
2018-06-20T10:21:46.893Z,66.00
2018-06-20T10:24:15.149Z,66.00
2018-06-20T10:26:43.361Z,66.00
2018-06-20T10:29:11.577Z,65.90
2018-06-20T10:31:39.777Z,65.40
2018-06-20T10:34:07.972Z,64.90
2018-06-20T10:36:36.136Z,64.80
2018-06-20T10:39:06.937Z,64.80
2018-06-20T10:41:37.044Z,64.40
2018-06-20T10:44:11.734Z,64.30
2018-06-20T10:46:46.075Z,64.40
2018-06-20T10:49:15.439Z,64.60
2018-06-20T10:54:12.333Z,65.80
2018-06-20T10:56:45.847Z,66.30
2018-06-20T10:59:19.532Z,66.20
2018-06-20T11:01:53.250Z,65.60
2018-06-20T11:04:26.849Z,64.40
2018-06-20T11:07:00.562Z,64.00
2018-06-20T11:09:34.229Z,63.80
2018-06-20T11:12:07.707Z,63.60
2018-06-20T11:17:09.526Z,63.20
2018-06-20T11:19:37.680Z,63.00
2018-06-20T11:22:05.894Z,62.70
2018-06-20T11:24:34.079Z,62.70
2018-06-20T11:27:02.229Z,62.70
2018-06-20T11:29:30.402Z,62.60
2018-06-20T11:31:58.607Z,62.70
2018-06-20T11:34:26.773Z,62.70
2018-06-20T11:36:55.045Z,63.80
2018-06-20T11:39:23.264Z,63.40
2018-06-20T11:44:19.330Z,63.30
2018-06-20T11:46:52.871Z,62.80
2018-06-20T11:51:49.117Z,62.30
2018-06-20T11:54:17.470Z,63.70
2018-06-20T11:56:45.681Z,62.40
2018-06-20T11:59:19.289Z,61.90
2018-06-20T12:01:53.067Z,62.70
2018-06-20T12:04:26.426Z,62.60
2018-06-20T12:07:00.115Z,62.20
2018-06-20T12:09:33.674Z,61.30
2018-06-20T12:12:07.341Z,60.80
2018-06-20T12:14:40.889Z,60.40
2018-06-20T12:17:08.317Z,60.10
2018-06-20T12:19:41.819Z,60.40
2018-06-20T12:22:15.537Z,60.40
2018-06-20T12:24:49.122Z,60.20
2018-06-20T12:27:22.794Z,60.10
2018-06-20T12:29:56.190Z,60.40
2018-06-20T12:32:29.872Z,59.90
2018-06-20T12:35:03.565Z,59.40
2018-06-20T12:37:37.073Z,59.00
2018-06-20T12:40:09.533Z,59.10
2018-06-20T12:42:43.006Z,59.10
2018-06-20T12:45:13.751Z,59.50
2018-06-20T12:47:48.070Z,59.90
2018-06-20T12:50:22.053Z,59.90
2018-06-20T12:52:50.403Z,60.20
2018-06-20T12:55:18.602Z,60.10
2018-06-20T12:57:46.777Z,59.70
2018-06-20T13:00:15.254Z,59.40
2018-06-20T13:02:43.749Z,58.70
2018-06-20T13:05:12.005Z,58.70
2018-06-20T13:07:40.198Z,58.60
2018-06-20T13:10:08.413Z,58.30
2018-06-20T13:12:36.881Z,58.40
2018-06-20T13:15:05.125Z,58.10
2018-06-20T13:17:33.921Z,58.20
2018-06-20T13:20:02.207Z,58.10
2018-06-20T13:22:30.509Z,58.30
2018-06-20T13:24:59.017Z,57.50
2018-06-20T13:27:33.994Z,57.20
2018-06-20T13:30:07.546Z,57.20
2018-06-20T13:32:41.357Z,57.40
2018-06-20T13:35:15.449Z,57.40
2018-06-20T13:37:49.165Z,57.10
2018-06-20T13:40:22.754Z,57.10
2018-06-20T13:42:56.454Z,56.90
2018-06-20T13:45:30.118Z,56.90
2018-06-20T13:48:03.817Z,56.70
2018-06-20T13:50:32.126Z,56.30
2018-06-20T13:53:00.302Z,56.50
2018-06-20T13:55:28.456Z,56.60
2018-06-20T13:57:56.695Z,57.00
2018-06-20T14:00:24.933Z,56.90
2018-06-20T14:02:53.097Z,56.60
2018-06-20T14:05:21.286Z,56.40
2018-06-20T14:07:49.461Z,56.60
2018-06-20T14:10:17.751Z,56.40
2018-06-20T14:12:45.918Z,56.20
2018-06-20T14:15:14.125Z,56.20
2018-06-20T14:20:15.966Z,56.00
2018-06-20T14:22:44.128Z,56.00
2018-06-20T14:25:12.339Z,55.30
2018-06-20T14:27:40.509Z,54.80
2018-06-20T14:30:08.823Z,54.60
2018-06-20T14:32:42.466Z,54.40
2018-06-20T14:35:15.985Z,54.50
2018-06-20T14:37:49.495Z,54.70
2018-06-20T14:41:25.678Z,54.30
2018-06-20T14:43:59.317Z,54.20
2018-06-20T14:46:29.290Z,54.00
2018-06-20T14:48:57.454Z,53.90
2018-06-20T14:53:53.721Z,53.80
2018-06-20T14:56:21.922Z,53.40
2018-06-20T14:58:50.104Z,53.00
2018-06-20T15:01:18.302Z,53.20
2018-06-20T15:03:46.536Z,53.10
2018-06-20T15:06:14.893Z,53.20
2018-06-20T15:08:43.114Z,53.00
2018-06-20T15:11:11.355Z,52.90
2018-06-20T15:13:39.485Z,52.70
2018-06-20T15:16:13.114Z,52.50
2018-06-20T15:18:41.301Z,51.70
2018-06-20T15:21:09.514Z,51.30
2018-06-20T15:23:37.681Z,51.00
2018-06-20T15:26:11.245Z,50.90
2018-06-20T15:28:44.822Z,51.10
2018-06-20T15:31:18.583Z,51.20
2018-06-20T15:33:52.137Z,51.00
2018-06-20T15:36:25.682Z,51.40
2018-06-20T15:38:53.955Z,51.60
2018-06-20T15:41:22.138Z,51.50
2018-06-20T15:43:50.318Z,51.30
2018-06-20T15:46:18.494Z,51.10
2018-06-20T15:48:46.717Z,51.10
2018-06-20T15:51:14.961Z,51.20
2018-06-20T15:53:43.165Z,51.00
2018-06-20T15:56:12.974Z,50.70
2018-06-20T15:58:41.221Z,50.40
2018-06-20T16:01:09.379Z,50.00
2018-06-20T16:03:37.618Z,49.70
2018-06-20T16:06:06.163Z,49.50
2018-06-20T16:08:38.578Z,49.60
2018-06-20T16:11:06.826Z,49.50
2018-06-20T16:13:35.067Z,49.20
2018-06-20T16:16:03.243Z,49.20
2018-06-20T16:18:31.413Z,49.00
2018-06-20T16:21:05.094Z,49.10
2018-06-20T16:23:38.853Z,49.60
2018-06-20T16:26:12.402Z,49.90
2018-06-20T16:28:46.107Z,50.10
2018-06-20T16:31:14.274Z,50.40
2018-06-20T16:33:42.470Z,50.20
2018-06-20T16:36:10.630Z,49.80
2018-06-20T16:38:38.829Z,49.80
2018-06-20T16:41:07.010Z,49.60
2018-06-20T16:43:35.200Z,49.00
2018-06-20T16:48:31.313Z,48.10
2018-06-20T16:50:59.554Z,47.60
2018-06-20T16:53:27.702Z,47.60
2018-06-20T16:55:55.902Z,47.60
2018-06-20T16:58:24.082Z,47.60
2018-06-20T17:00:56.550Z,47.30
2018-06-20T17:03:24.777Z,47.00
2018-06-20T17:05:53.010Z,47.00
2018-06-20T17:08:21.179Z,47.30
2018-06-20T17:10:49.339Z,47.50
2018-06-20T17:13:23.023Z,47.80
2018-06-20T17:15:56.718Z,47.50
2018-06-20T17:18:30.162Z,47.40
2018-06-20T17:21:03.822Z,47.20
2018-06-20T17:23:37.362Z,47.20
2018-06-20T17:26:05.550Z,47.40
2018-06-20T17:28:33.701Z,47.70
2018-06-20T17:31:01.874Z,47.90
2018-06-20T17:33:30.122Z,48.00
2018-06-20T17:35:58.617Z,48.20
2018-06-20T17:38:26.777Z,48.20
2018-06-20T17:40:54.945Z,48.30
2018-06-20T17:43:23.245Z,48.80
2018-06-20T17:45:51.442Z,48.90
2018-06-20T17:48:19.682Z,48.90
2018-06-20T17:50:47.859Z,49.00
2018-06-20T17:53:16.087Z,49.20
2018-06-20T17:55:44.262Z,49.20
2018-06-20T17:58:12.499Z,49.20
2018-06-20T18:00:46.117Z,49.20
2018-06-20T18:03:14.609Z,49.20
2018-06-20T18:05:48.121Z,49.20
2018-06-20T18:08:21.814Z,49.20
2018-06-20T18:10:55.432Z,49.20
2018-06-20T18:13:28.059Z,49.00
2018-06-20T18:16:01.655Z,49.60
2018-06-20T18:18:29.886Z,48.90
2018-06-20T18:20:58.092Z,49.00
2018-06-20T18:23:26.305Z,49.30
2018-06-20T18:25:54.478Z,49.30
2018-06-20T18:28:22.674Z,49.40
2018-06-20T18:30:50.834Z,49.50
2018-06-20T18:33:19.125Z,49.60
2018-06-20T18:35:47.319Z,49.80
2018-06-20T18:38:15.486Z,50.00
2018-06-20T18:40:43.687Z,50.10
2018-06-20T18:43:11.852Z,50.20
2018-06-20T18:45:40.058Z,50.20
2018-06-20T18:48:13.653Z,50.30
2018-06-20T18:50:41.855Z,50.50
2018-06-20T18:53:10.038Z,50.60
2018-06-20T18:55:38.270Z,50.70
2018-06-20T18:58:11.861Z,50.80
2018-06-20T19:01:45.111Z,51.10
2018-06-20T19:04:18.789Z,51.40
2018-06-20T19:06:52.400Z,51.60
2018-06-20T19:09:22.860Z,52.10
2018-06-20T19:11:51.038Z,52.90
2018-06-20T19:14:19.209Z,52.70
2018-06-20T19:16:47.370Z,53.00
2018-06-20T19:19:15.540Z,53.20
2018-06-20T19:21:43.746Z,53.40
2018-06-20T19:24:11.985Z,53.60
2018-06-20T19:26:40.220Z,53.80
2018-06-20T19:29:08.375Z,53.80
2018-06-20T19:31:36.662Z,54.00
2018-06-20T19:34:04.938Z,54.00
2018-06-20T19:36:33.309Z,54.20
2018-06-20T19:41:33.733Z,54.60
2018-06-20T19:44:07.242Z,54.80
2018-06-20T19:46:35.463Z,54.90
2018-06-20T19:49:03.647Z,55.00
2018-06-20T19:51:31.819Z,55.10
2018-06-20T19:54:00.027Z,55.20
2018-06-20T19:56:28.253Z,55.20
2018-06-20T19:58:56.445Z,55.30
2018-06-20T20:01:24.668Z,55.40
2018-06-20T20:03:52.877Z,55.60
2018-06-20T20:06:22.280Z,55.60
2018-06-20T20:08:50.541Z,55.70
2018-06-20T20:11:18.703Z,55.80
2018-06-20T20:13:46.998Z,56.00
2018-06-20T20:16:15.234Z,56.20
2018-06-20T20:18:43.442Z,56.30
2018-06-20T20:21:11.669Z,56.40
2018-06-20T20:23:39.892Z,56.50
2018-06-20T20:26:08.165Z,56.70
2018-06-20T20:28:36.342Z,56.80
2018-06-20T20:31:04.504Z,56.80
2018-06-20T20:33:32.676Z,56.90
2018-06-20T20:36:00.846Z,57.00
2018-06-20T20:38:29.029Z,57.10
2018-06-20T20:40:57.192Z,57.10
2018-06-20T20:43:25.361Z,57.30
2018-06-20T20:45:53.544Z,57.50
2018-06-20T20:48:21.735Z,57.50
2018-06-20T20:50:49.918Z,57.70
2018-06-20T20:53:18.093Z,57.90
2018-06-20T20:55:46.306Z,57.90
2018-06-20T20:58:14.481Z,58.10
2018-06-20T21:00:42.701Z,58.20
2018-06-20T21:03:10.883Z,58.20
2018-06-20T21:05:39.760Z,58.40
2018-06-20T21:08:07.921Z,58.50
2018-06-20T21:10:36.202Z,58.40
2018-06-20T21:13:04.393Z,58.50
2018-06-20T21:15:32.585Z,59.20
2018-06-20T21:18:00.854Z,58.50
2018-06-20T21:20:29.030Z,58.60
2018-06-20T21:22:57.201Z,58.60
2018-06-20T21:25:25.398Z,58.60
2018-06-20T21:27:53.784Z,58.70
2018-06-20T21:30:21.926Z,58.70
2018-06-20T21:32:50.103Z,58.80
2018-06-20T21:35:18.296Z,58.90
2018-06-20T21:37:46.464Z,58.90
2018-06-20T21:40:14.637Z,59.00
2018-06-20T21:42:42.806Z,59.00
2018-06-20T21:45:10.972Z,59.10
2018-06-20T21:47:39.156Z,59.20
2018-06-20T21:50:07.342Z,59.30
2018-06-20T21:52:35.526Z,59.40
2018-06-20T21:55:03.731Z,59.50
2018-06-20T21:57:31.937Z,59.60
2018-06-20T22:00:00.120Z,59.80
2018-06-20T22:02:28.281Z,59.80
2018-06-20T22:04:56.457Z,59.80
2018-06-20T22:09:52.557Z,59.80
2018-06-20T22:12:20.773Z,60.00
2018-06-20T22:14:48.996Z,60.10
2018-06-20T22:17:17.234Z,60.20
2018-06-20T22:19:45.432Z,60.40
2018-06-20T22:22:13.685Z,60.40
2018-06-20T22:24:41.870Z,60.50
2018-06-20T22:27:10.050Z,60.60
2018-06-20T22:29:38.229Z,61.40
2018-06-20T22:32:06.425Z,60.70
2018-06-20T22:34:34.614Z,60.90
2018-06-20T22:37:02.802Z,61.00
2018-06-20T22:39:30.957Z,61.20
2018-06-20T22:41:59.138Z,61.30
2018-06-20T22:44:27.324Z,61.30
2018-06-20T22:46:55.793Z,61.40
2018-06-20T22:49:24.199Z,61.60
2018-06-20T22:51:52.454Z,61.70
2018-06-20T22:54:20.687Z,61.80
2018-06-20T22:56:48.858Z,61.90
2018-06-20T22:59:17.064Z,62.00
2018-06-20T23:01:45.235Z,62.20
2018-06-20T23:04:13.414Z,62.40
2018-06-20T23:06:41.641Z,62.60
2018-06-20T23:09:10.674Z,62.70
2018-06-20T23:11:44.074Z,62.90
2018-06-20T23:14:12.397Z,63.10
2018-06-20T23:16:40.776Z,63.10
2018-06-20T23:19:09.514Z,63.10
2018-06-20T23:21:37.718Z,63.20
2018-06-20T23:24:05.905Z,63.20
2018-06-20T23:26:34.125Z,63.20
2018-06-20T23:29:02.322Z,63.20
2018-06-20T23:31:30.514Z,63.20
2018-06-20T23:33:58.732Z,63.20
2018-06-20T23:36:26.893Z,63.20
2018-06-20T23:38:55.065Z,63.30
2018-06-20T23:41:23.236Z,63.40
2018-06-20T23:43:51.407Z,63.30
2018-06-20T23:46:19.581Z,63.40
2018-06-20T23:48:47.809Z,63.50
2018-06-20T23:51:16.014Z,63.60
2018-06-20T23:53:44.238Z,63.60
2018-06-20T23:56:12.490Z,63.60
2018-06-20T23:58:40.734Z,63.70
